Time;durP1;ratioP1;P1;durP2;ratioP2;P2;SDS_P1;SDS_P2;PMS_P1;PMS_P2;Temp;Humidity;BMP_temperature;BMP_pressure;BME280_temperature;BME280_humidity;BME280_pressure;Samples;Min_cycle;Max_cycle;Signal;HPM_P1;HPM_P2
2022/06/04 00:00:15;;;;;;;;;;;19.40;63.40;;;;;;5052113;28;1901;-70
2022/06/04 00:02:41;;;;;;;;;;;19.40;63.40;;;;;;5051354;28;1183;-70
2022/06/04 00:05:07;;;;;;;;;;;19.40;63.40;;;;;;5052553;28;1048;-70
2022/06/04 00:07:33;;;;;;;;;;;19.40;63.50;;;;;;5051296;28;859;-70
2022/06/04 00:15:29;;;;;;;;;;;19.40;63.50;;;;;;5052375;28;689;-70
2022/06/04 00:17:55;;;;;;;;;;;19.40;63.50;;;;;;5051068;28;1201;-70
2022/06/04 00:20:21;;;;;;;;;;;19.40;63.50;;;;;;5032303;28;1957;-70
2022/06/04 00:22:46;;;;;;;;;;;19.40;63.50;;;;;;5032496;28;1239;-69
2022/06/04 00:25:12;;;;;;;;;;;19.40;63.50;;;;;;5032404;28;1193;-70
2022/06/04 00:27:38;;;;;;;;;;;19.40;63.50;;;;;;5050949;28;1163;-69
2022/06/04 00:30:05;;;;;;;;;;;19.40;63.60;;;;;;5051924;28;799;-70
2022/06/04 00:32:31;;;;;;;;;;;19.40;63.50;;;;;;5052393;28;1195;-70
2022/06/04 00:34:56;;;;;;;;;;;19.40;63.50;;;;;;5052209;28;1041;-70
2022/06/04 00:37:21;;;;;;;;;;;19.40;63.50;;;;;;5034390;28;1274;-70
2022/06/04 00:39:47;;;;;;;;;;;19.40;63.60;;;;;;5052122;28;1017;-69
2022/06/04 00:42:13;;;;;;;;;;;19.40;63.60;;;;;;5052034;28;1894;-69
2022/06/04 00:44:39;;;;;;;;;;;19.40;63.60;;;;;;5052322;28;1295;-70
2022/06/04 00:47:06;;;;;;;;;;;19.40;63.60;;;;;;5055853;28;854;-70
2022/06/04 00:49:32;;;;;;;;;;;19.40;63.60;;;;;;5054340;28;875;-70
2022/06/04 00:51:57;;;;;;;;;;;19.40;63.60;;;;;;5054241;28;851;-70
2022/06/04 00:54:23;;;;;;;;;;;19.40;63.70;;;;;;5054375;28;1168;-70
2022/06/04 00:56:54;;;;;;;;;;;19.40;63.60;;;;;;5054399;28;812;-70
2022/06/04 00:59:19;;;;;;;;;;;19.40;63.70;;;;;;5055423;28;994;-70
2022/06/04 01:02:04;;;;;;;;;;;19.40;63.70;;;;;;5053945;28;1917;-70
2022/06/04 01:04:48;;;;;;;;;;;19.40;63.70;;;;;;5055332;28;1273;-70
2022/06/04 01:07:21;;;;;;;;;;;19.40;63.70;;;;;;5054472;28;891;-70
2022/06/04 01:09:51;;;;;;;;;;;19.40;63.70;;;;;;5055157;28;762;-70
2022/06/04 01:12:46;;;;;;;;;;;19.40;63.70;;;;;;5053983;28;808;-70
2022/06/04 01:15:11;;;;;;;;;;;19.40;63.80;;;;;;5035392;28;1256;-70
2022/06/04 01:17:40;;;;;;;;;;;19.40;63.70;;;;;;5055609;28;973;-69
2022/06/04 01:20:18;;;;;;;;;;;19.40;63.70;;;;;;5034277;28;1956;-70
2022/06/04 01:22:44;;;;;;;;;;;19.40;63.80;;;;;;5033831;28;1232;-70
2022/06/04 01:25:28;;;;;;;;;;;19.40;63.80;;;;;;5035282;28;966;-70
2022/06/04 01:27:56;;;;;;;;;;;19.40;63.80;;;;;;5035181;28;831;-70
2022/06/04 01:30:23;;;;;;;;;;;19.40;63.80;;;;;;5034702;28;863;-69
2022/06/04 01:32:50;;;;;;;;;;;19.40;63.70;;;;;;5033785;28;1310;-70
2022/06/04 01:35:23;;;;;;;;;;;19.40;63.90;;;;;;5034789;28;803;-70
2022/06/04 01:37:59;;;;;;;;;;;19.40;63.80;;;;;;5034992;28;891;-70
2022/06/04 01:43:12;;;;;;;;;;;19.40;63.80;;;;;;5034549;28;1308;-70
2022/06/04 01:45:37;;;;;;;;;;;19.40;63.90;;;;;;5033465;28;870;-70
2022/06/04 01:48:03;;;;;;;;;;;19.40;63.90;;;;;;5016878;28;1358;-70
2022/06/04 01:50:31;;;;;;;;;;;19.40;63.80;;;;;;5033002;28;839;-70
2022/06/04 01:52:56;;;;;;;;;;;19.40;64.60;;;;;;5034608;28;1172;-69
2022/06/04 01:55:22;;;;;;;;;;;19.40;63.90;;;;;;5033208;28;725;-70
2022/06/04 01:57:49;;;;;;;;;;;19.40;63.90;;;;;;5033353;28;1014;-70
2022/06/04 02:00:35;;;;;;;;;;;19.40;63.90;;;;;;5032790;28;1959;-70
2022/06/04 02:03:03;;;;;;;;;;;19.40;63.90;;;;;;5033307;28;1405;-70
2022/06/04 02:05:39;;;;;;;;;;;19.40;63.90;;;;;;5034370;28;971;-70
2022/06/04 02:08:05;;;;;;;;;;;19.40;64.00;;;;;;5033170;28;1042;-70
2022/06/04 02:10:35;;;;;;;;;;;19.40;64.00;;;;;;5032817;28;808;-70
2022/06/04 02:13:01;;;;;;;;;;;19.40;64.00;;;;;;5032873;28;1183;-70
2022/06/04 02:15:48;;;;;;;;;;;19.40;64.00;;;;;;5033072;28;1521;-69
2022/06/04 02:18:13;;;;;;;;;;;19.40;64.00;;;;;;5037980;28;1202;-70
2022/06/04 02:20:39;;;;;;;;;;;19.40;64.00;;;;;;5053628;28;1898;-70
2022/06/04 02:23:04;;;;;;;;;;;19.40;64.00;;;;;;5054013;28;1203;-69
2022/06/04 02:25:30;;;;;;;;;;;19.40;64.00;;;;;;5051640;28;1107;-70
2022/06/04 02:27:55;;;;;;;;;;;19.40;64.00;;;;;;5036451;28;824;-70
2022/06/04 02:30:21;;;;;;;;;;;19.40;64.00;;;;;;5052518;28;775;-70
2022/06/04 02:32:55;;;;;;;;;;;19.40;64.00;;;;;;5053760;28;1205;-69
2022/06/04 02:35:32;;;;;;;;;;;19.40;64.10;;;;;;5053385;28;806;-70
2022/06/04 02:38:01;;;;;;;;;;;19.40;64.10;;;;;;5053626;28;926;-70
2022/06/04 02:40:27;;;;;;;;;;;19.40;64.10;;;;;;5053518;28;1906;-70
2022/06/04 02:43:04;;;;;;;;;;;19.40;64.10;;;;;;5053550;28;1243;-70
2022/06/04 02:45:31;;;;;;;;;;;19.40;64.10;;;;;;5052312;28;1068;-70
2022/06/04 02:48:00;;;;;;;;;;;19.40;64.10;;;;;;5052466;28;1024;-70
2022/06/04 02:50:27;;;;;;;;;;;19.40;64.10;;;;;;5053092;28;831;-70
2022/06/04 02:52:53;;;;;;;;;;;19.40;64.10;;;;;;5052313;28;1282;-70
2022/06/04 02:55:19;;;;;;;;;;;19.40;64.20;;;;;;5052114;28;1002;-69
2022/06/04 02:57:46;;;;;;;;;;;19.40;64.20;;;;;;5052348;28;1017;-69
2022/06/04 03:00:13;;;;;;;;;;;19.40;64.20;;;;;;5051931;28;1973;-69
2022/06/04 03:02:39;;;;;;;;;;;19.40;64.20;;;;;;5068629;28;1326;-69
2022/06/04 03:05:09;;;;;;;;;;;19.40;64.20;;;;;;5053063;28;906;-69
2022/06/04 03:07:34;;;;;;;;;;;19.40;64.20;;;;;;5051531;28;913;-69
2022/06/04 03:10:02;;;;;;;;;;;19.40;64.20;;;;;;5051517;28;1325;-69
2022/06/04 03:12:27;;;;;;;;;;;19.40;64.20;;;;;;5051898;28;1195;-69
2022/06/04 03:14:53;;;;;;;;;;;19.40;64.20;;;;;;5052967;28;830;-69
2022/06/04 03:17:18;;;;;;;;;;;19.40;64.20;;;;;;5052944;28;926;-69
2022/06/04 03:19:44;;;;;;;;;;;19.40;64.20;;;;;;5036358;28;1237;-69
2022/06/04 03:22:09;;;;;;;;;;;19.40;64.20;;;;;;5032904;28;1969;-69
2022/06/04 03:24:34;;;;;;;;;;;19.40;64.30;;;;;;5032965;28;1243;-69
2022/06/04 03:27:00;;;;;;;;;;;19.40;64.30;;;;;;5046343;28;1167;-69
2022/06/04 03:29:25;;;;;;;;;;;19.40;64.30;;;;;;5052762;28;1005;-69
2022/06/04 03:31:51;;;;;;;;;;;19.40;64.30;;;;;;5053208;28;1001;-69
2022/06/04 03:34:16;;;;;;;;;;;19.40;64.30;;;;;;5052620;28;1287;-69
2022/06/04 03:36:42;;;;;;;;;;;19.40;64.30;;;;;;5052880;28;814;-69
2022/06/04 03:39:08;;;;;;;;;;;19.30;64.20;;;;;;5051499;28;1049;-70
2022/06/04 03:41:34;;;;;;;;;;;19.40;64.30;;;;;;5051254;28;1967;-69
2022/06/04 03:43:59;;;;;;;;;;;19.40;64.30;;;;;;5053225;28;1241;-70
2022/06/04 03:46:25;;;;;;;;;;;19.40;64.30;;;;;;5053082;28;777;-70
2022/06/04 03:48:54;;;;;;;;;;;19.40;64.30;;;;;;5052458;28;890;-70
2022/06/04 03:51:20;;;;;;;;;;;19.40;64.30;;;;;;5052439;28;1073;-70
2022/06/04 03:53:45;;;;;;;;;;;19.30;64.20;;;;;;5052654;28;1157;-70
2022/06/04 03:56:11;;;;;;;;;;;19.40;64.30;;;;;;5051613;28;815;-70
2022/06/04 03:58:36;;;;;;;;;;;19.40;64.30;;;;;;5052703;28;1013;-70
2022/06/04 04:01:11;;;;;;;;;;;19.40;64.30;;;;;;5051055;28;1898;-70
2022/06/04 04:03:36;;;;;;;;;;;19.40;64.40;;;;;;5051460;28;1339;-70
2022/06/04 04:06:02;;;;;;;;;;;19.40;64.30;;;;;;5052593;28;893;-70
2022/06/04 04:08:27;;;;;;;;;;;19.40;64.30;;;;;;5052656;28;1093;-70
2022/06/04 04:10:53;;;;;;;;;;;19.40;64.30;;;;;;5052279;28;1017;-70
2022/06/04 04:13:18;;;;;;;;;;;19.40;64.30;;;;;;5051430;28;1302;-70
2022/06/04 04:15:45;;;;;;;;;;;19.40;64.30;;;;;;5050040;28;1522;-67
2022/06/04 04:18:10;;;;;;;;;;;19.40;64.40;;;;;;5043087;28;2026;-70
2022/06/04 04:20:36;;;;;;;;;;;19.40;64.40;;;;;;5050332;28;1961;-70
2022/06/04 04:23:02;;;;;;;;;;;19.40;64.40;;;;;;5048455;28;1285;-70
2022/06/04 04:25:28;;;;;;;;;;;19.40;64.40;;;;;;5052836;28;1166;-70
2022/06/04 04:27:53;;;;;;;;;;;19.30;64.30;;;;;;5035259;28;831;-70
2022/06/04 04:30:20;;;;;;;;;;;19.40;64.40;;;;;;5034725;28;902;-70
2022/06/04 04:32:45;;;;;;;;;;;19.40;64.50;;;;;;5035053;28;1232;-70
2022/06/04 04:35:12;;;;;;;;;;;19.40;64.40;;;;;;5036120;28;1041;-69
2022/06/04 04:37:38;;;;;;;;;;;19.30;64.40;;;;;;5036176;28;909;-70
2022/06/04 04:40:04;;;;;;;;;;;19.30;64.40;;;;;;5035381;28;866;-71
2022/06/04 04:42:29;;;;;;;;;;;19.30;64.40;;;;;;5034214;28;1945;-71
2022/06/04 04:44:54;;;;;;;;;;;19.40;64.50;;;;;;5035626;28;879;-71
2022/06/04 04:47:20;;;;;;;;;;;19.30;64.40;;;;;;5035550;28;886;-71
2022/06/04 04:49:45;;;;;;;;;;;19.40;64.50;;;;;;5035267;28;947;-71
2022/06/04 04:52:11;;;;;;;;;;;19.30;64.40;;;;;;5035130;28;890;-70
2022/06/04 04:54:36;;;;;;;;;;;19.30;64.40;;;;;;5035304;28;1310;-70
2022/06/04 04:57:02;;;;;;;;;;;19.30;64.40;;;;;;5035343;28;1223;-69
2022/06/04 04:59:27;;;;;;;;;;;19.40;64.50;;;;;;5035090;28;1061;-69
2022/06/04 05:01:53;;;;;;;;;;;19.40;64.30;;;;;;5034820;28;1906;-69
2022/06/04 05:04:18;;;;;;;;;;;19.40;64.30;;;;;;5033808;28;1192;-68
2022/06/04 05:06:43;;;;;;;;;;;19.40;64.10;;;;;;5035065;28;832;-70
2022/06/04 05:09:09;;;;;;;;;;;19.40;63.90;;;;;;5035586;28;819;-70
2022/06/04 05:11:35;;;;;;;;;;;19.40;63.80;;;;;;5033675;28;784;-69
2022/06/04 05:14:00;;;;;;;;;;;19.40;63.60;;;;;;5033686;28;1185;-70
2022/06/04 05:16:27;;;;;;;;;;;19.40;63.60;;;;;;5035001;28;990;-69
2022/06/04 05:18:52;;;;;;;;;;;19.40;63.60;;;;;;5044038;28;1131;-69
2022/06/04 05:21:19;;;;;;;;;;;19.40;63.70;;;;;;5052609;28;2244;-70
2022/06/04 05:23:44;;;;;;;;;;;19.30;63.60;;;;;;5050765;28;1455;-70
2022/06/04 05:26:09;;;;;;;;;;;19.40;63.70;;;;;;5051932;28;1151;-70
2022/06/04 05:28:35;;;;;;;;;;;19.40;63.70;;;;;;5036637;28;1059;-70
2022/06/04 05:31:00;;;;;;;;;;;19.30;63.80;;;;;;5032553;28;863;-69
2022/06/04 05:33:26;;;;;;;;;;;19.30;63.80;;;;;;5034739;28;1209;-70
2022/06/04 05:35:51;;;;;;;;;;;19.40;64.00;;;;;;5036014;28;2273;-70
2022/06/04 05:38:17;;;;;;;;;;;19.40;64.00;;;;;;5053514;28;1049;-70
2022/06/04 05:40:42;;;;;;;;;;;19.40;64.00;;;;;;5045516;28;1891;-71
2022/06/04 05:43:08;;;;;;;;;;;19.40;64.10;;;;;;5051160;28;2239;-71
2022/06/04 05:45:33;;;;;;;;;;;19.30;64.10;;;;;;5045552;28;1106;-71
2022/06/04 05:47:58;;;;;;;;;;;19.40;64.10;;;;;;5054422;28;990;-71
2022/06/04 05:50:24;;;;;;;;;;;19.40;64.10;;;;;;5046011;28;1566;-71
2022/06/04 05:52:49;;;;;;;;;;;19.40;64.10;;;;;;5049032;28;1328;-71
2022/06/04 05:55:15;;;;;;;;;;;19.40;64.20;;;;;;5049097;28;1075;-71
2022/06/04 05:57:40;;;;;;;;;;;19.30;64.20;;;;;;5054040;28;812;-71
2022/06/04 06:00:08;;;;;;;;;;;19.40;64.20;;;;;;5049621;28;996;-70
2022/06/04 06:02:34;;;;;;;;;;;19.30;64.20;;;;;;5047912;28;1974;-70
2022/06/04 06:04:59;;;;;;;;;;;19.40;64.30;;;;;;5053048;28;891;-70
2022/06/04 06:07:24;;;;;;;;;;;19.30;64.20;;;;;;5052952;28;938;-70
2022/06/04 06:09:50;;;;;;;;;;;19.40;64.30;;;;;;5052872;28;867;-69
2022/06/04 06:12:15;;;;;;;;;;;19.30;64.20;;;;;;5051442;28;1564;-69
2022/06/04 06:14:41;;;;;;;;;;;19.30;64.20;;;;;;5052681;28;1348;-69
2022/06/04 06:17:06;;;;;;;;;;;19.40;64.30;;;;;;5052829;28;858;-69
2022/06/04 06:19:32;;;;;;;;;;;19.40;64.30;;;;;;5038095;28;1181;-71
2022/06/04 06:21:57;;;;;;;;;;;19.30;64.20;;;;;;5032532;28;1903;-71
2022/06/04 06:24:23;;;;;;;;;;;19.40;64.30;;;;;;5032713;28;1209;-70
2022/06/04 06:26:53;;;;;;;;;;;19.30;64.30;;;;;;5034331;28;1182;-68
2022/06/04 06:29:18;;;;;;;;;;;19.40;64.40;;;;;;5032765;28;846;-69
2022/06/04 06:31:44;;;;;;;;;;;19.30;64.30;;;;;;5032127;28;859;-69
2022/06/04 06:34:09;;;;;;;;;;;19.40;64.40;;;;;;5015124;28;1331;-69
2022/06/04 06:36:35;;;;;;;;;;;19.40;64.40;;;;;;5032615;28;894;-70
2022/06/04 06:39:00;;;;;;;;;;;19.40;64.40;;;;;;5032363;28;626;-70
2022/06/04 06:41:26;;;;;;;;;;;19.30;64.40;;;;;;5031527;28;1967;-70
2022/06/04 06:43:51;;;;;;;;;;;19.30;64.40;;;;;;5031717;28;1226;-70
2022/06/04 06:46:18;;;;;;;;;;;19.40;64.90;;;;;;5032162;28;1053;-70
2022/06/04 06:48:44;;;;;;;;;;;19.40;64.80;;;;;;5032196;28;871;-70
2022/06/04 06:51:11;;;;;;;;;;;19.40;65.00;;;;;;5030919;28;878;-69
2022/06/04 06:53:36;;;;;;;;;;;19.40;65.90;;;;;;5031290;28;1219;-69
2022/06/04 06:56:13;;;;;;;;;;;19.40;65.60;;;;;;5032176;28;859;-69
2022/06/04 06:58:39;;;;;;;;;;;19.40;65.30;;;;;;5032124;28;823;-70
2022/06/04 07:01:04;;;;;;;;;;;19.40;65.40;;;;;;5031981;28;1898;-70
2022/06/04 07:03:30;;;;;;;;;;;19.40;65.40;;;;;;5032110;28;1291;-70
2022/06/04 07:05:55;;;;;;;;;;;19.40;65.40;;;;;;5032144;28;883;-70
2022/06/04 07:08:21;;;;;;;;;;;19.40;65.40;;;;;;5044969;28;1880;-70
2022/06/04 07:10:47;;;;;;;;;;;19.40;65.30;;;;;;5049204;28;1135;-70
2022/06/04 07:13:12;;;;;;;;;;;19.40;65.30;;;;;;5046698;28;1347;-70
2022/06/04 07:15:38;;;;;;;;;;;19.40;65.40;;;;;;5042999;28;1877;-70
2022/06/04 07:18:03;;;;;;;;;;;19.40;65.30;;;;;;5047910;28;1743;-70
2022/06/04 07:20:28;;;;;;;;;;;19.40;65.30;;;;;;5046554;28;1953;-70
2022/06/04 07:22:54;;;;;;;;;;;19.50;65.80;;;;;;5047422;28;1650;-70
2022/06/04 07:25:21;;;;;;;;;;;19.50;65.70;;;;;;5041747;28;1314;-70
2022/06/04 07:27:46;;;;;;;;;;;19.50;65.70;;;;;;5040525;28;1483;-70
2022/06/04 07:30:12;;;;;;;;;;;19.50;65.90;;;;;;5041724;28;1314;-70
2022/06/04 07:32:37;;;;;;;;;;;19.50;65.90;;;;;;5042997;28;1553;-70
2022/06/04 07:35:03;;;;;;;;;;;19.60;66.10;;;;;;5039666;28;1259;-71
2022/06/04 07:37:29;;;;;;;;;;;19.60;66.10;;;;;;5048716;28;1239;-70
2022/06/04 07:39:54;;;;;;;;;;;19.60;66.30;;;;;;5051230;28;887;-70
2022/06/04 07:42:19;;;;;;;;;;;19.60;66.30;;;;;;5051464;28;1953;-70
2022/06/04 07:44:45;;;;;;;;;;;19.70;66.20;;;;;;5051586;28;1080;-70
2022/06/04 07:47:12;;;;;;;;;;;19.70;66.20;;;;;;5051454;28;1068;-70
2022/06/04 07:49:37;;;;;;;;;;;19.70;66.10;;;;;;5051562;28;839;-69
2022/06/04 07:52:03;;;;;;;;;;;19.70;66.20;;;;;;5051454;28;867;-70
2022/06/04 07:54:29;;;;;;;;;;;19.70;66.20;;;;;;5054741;28;1180;-70
2022/06/04 07:56:54;;;;;;;;;;;19.70;66.30;;;;;;5055728;28;871;-70
2022/06/04 07:59:20;;;;;;;;;;;19.70;66.30;;;;;;5055788;28;808;-71
2022/06/04 08:01:46;;;;;;;;;;;19.70;66.30;;;;;;5055146;28;1969;-70
2022/06/04 08:04:11;;;;;;;;;;;19.70;66.40;;;;;;5055438;28;1223;-70
2022/06/04 08:06:37;;;;;;;;;;;19.70;66.50;;;;;;5055098;28;784;-70
2022/06/04 08:09:02;;;;;;;;;;;19.80;66.60;;;;;;5055645;28;1021;-70
2022/06/04 08:11:31;;;;;;;;;;;19.80;66.70;;;;;;5037503;28;1396;-70
2022/06/04 08:14:17;;;;;;;;;;;19.80;66.70;;;;;;5054366;28;1318;-70
2022/06/04 08:16:47;;;;;;;;;;;19.80;67.60;;;;;;5054982;28;1775;-70
2022/06/04 08:19:13;;;;;;;;;;;19.70;66.90;;;;;;5043144;28;1492;-70
2022/06/04 08:21:39;;;;;;;;;;;19.80;67.00;;;;;;5034927;28;1959;-69
2022/06/04 08:24:04;;;;;;;;;;;19.80;67.00;;;;;;5034169;28;1219;-70
2022/06/04 08:26:30;;;;;;;;;;;19.80;67.00;;;;;;5037001;28;1410;-70
2022/06/04 08:28:55;;;;;;;;;;;19.80;67.20;;;;;;5035114;28;910;-70
2022/06/04 08:31:21;;;;;;;;;;;19.80;67.20;;;;;;5033613;28;867;-70
2022/06/04 08:33:46;;;;;;;;;;;19.80;67.20;;;;;;5033827;28;1307;-70
2022/06/04 08:36:12;;;;;;;;;;;19.80;67.30;;;;;;5033624;28;848;-70
2022/06/04 08:38:38;;;;;;;;;;;19.80;67.30;;;;;;5034124;28;1112;-69
2022/06/04 08:41:05;;;;;;;;;;;19.80;67.20;;;;;;5052628;28;2371;-69
2022/06/04 08:43:42;;;;;;;;;;;19.80;67.10;;;;;;5045837;28;1872;-69
2022/06/04 08:46:26;;;;;;;;;;;19.80;67.50;;;;;;5055349;28;1346;-69
2022/06/04 08:48:51;;;;;;;;;;;19.80;67.10;;;;;;5047008;28;1984;-69
2022/06/04 08:51:22;;;;;;;;;;;19.80;67.20;;;;;;5047101;28;1625;-69
2022/06/04 08:53:49;;;;;;;;;;;19.80;67.20;;;;;;5054758;28;1573;-70
2022/06/04 08:59:09;;;;;;;;;;;19.90;67.20;;;;;;5050612;28;1332;-69
2022/06/04 09:01:36;;;;;;;;;;;19.90;67.20;;;;;;5034811;28;1972;-70
2022/06/04 09:04:05;;;;;;;;;;;19.80;67.20;;;;;;5034035;28;1275;-70
2022/06/04 09:06:30;;;;;;;;;;;19.90;67.30;;;;;;5034510;28;978;-70
2022/06/04 09:09:00;;;;;;;;;;;19.90;67.70;;;;;;5035176;28;990;-70
2022/06/04 09:11:37;;;;;;;;;;;19.90;68.00;;;;;;5033782;28;1018;-70
2022/06/04 09:14:03;;;;;;;;;;;19.90;68.00;;;;;;5033953;28;1239;-69
2022/06/04 09:16:29;;;;;;;;;;;19.90;67.90;;;;;;5034974;28;986;-69
2022/06/04 09:19:02;;;;;;;;;;;20.00;68.00;;;;;;5034899;28;1415;-70
2022/06/04 09:21:32;;;;;;;;;;;20.00;67.80;;;;;;5033379;28;1965;-70
2022/06/04 09:23:58;;;;;;;;;;;19.90;67.50;;;;;;5033680;28;1223;-71
2022/06/04 09:26:25;;;;;;;;;;;20.00;67.60;;;;;;5036537;28;1488;-69
2022/06/04 09:29:09;;;;;;;;;;;20.00;67.60;;;;;;5034780;28;815;-69
2022/06/04 09:31:49;;;;;;;;;;;20.00;67.70;;;;;;5034359;28;757;-70
2022/06/04 09:34:16;;;;;;;;;;;20.00;67.80;;;;;;5034607;28;1189;-70
2022/06/04 09:36:42;;;;;;;;;;;20.00;67.80;;;;;;5033298;28;1421;-69
2022/06/04 09:39:21;;;;;;;;;;;20.00;68.00;;;;;;5034587;28;850;-69
2022/06/04 09:41:52;;;;;;;;;;;19.90;68.00;;;;;;5033101;28;1967;-70
2022/06/04 09:44:18;;;;;;;;;;;19.90;68.70;;;;;;5034891;28;1276;-70
2022/06/04 09:46:44;;;;;;;;;;;20.00;68.60;;;;;;5034384;28;962;-70
2022/06/04 09:49:29;;;;;;;;;;;20.00;69.40;;;;;;5033144;28;804;-70
2022/06/04 09:51:55;;;;;;;;;;;20.00;68.90;;;;;;5046310;28;1716;-70
2022/06/04 09:54:24;;;;;;;;;;;20.00;69.10;;;;;;5054151;28;1272;-70
2022/06/04 09:56:54;;;;;;;;;;;20.00;68.90;;;;;;5052965;28;988;-70
2022/06/04 09:59:24;;;;;;;;;;;20.00;69.00;;;;;;5053125;28;866;-70
2022/06/04 10:01:53;;;;;;;;;;;20.00;69.00;;;;;;5054080;28;1902;-69
2022/06/04 10:04:19;;;;;;;;;;;19.90;69.10;;;;;;5054319;28;1230;-69
2022/06/04 10:06:44;;;;;;;;;;;19.90;69.30;;;;;;5054259;28;806;-70
2022/06/04 10:11:59;;;;;;;;;;;19.90;69.80;;;;;;5053044;28;725;-68
2022/06/04 10:14:32;;;;;;;;;;;19.90;69.80;;;;;;5053122;28;1380;-69
2022/06/04 10:16:57;;;;;;;;;;;19.90;69.80;;;;;;5053193;28;853;-70
2022/06/04 10:19:23;;;;;;;;;;;19.90;69.80;;;;;;5038874;28;2101;-69
2022/06/04 10:21:50;;;;;;;;;;;20.00;70.90;;;;;;5050632;28;1898;-70
2022/06/04 10:24:23;;;;;;;;;;;20.00;70.90;;;;;;5052558;28;1269;-70
2022/06/04 10:26:49;;;;;;;;;;;20.10;70.80;;;;;;5052476;28;1404;-70
2022/06/04 10:29:26;;;;;;;;;;;20.10;70.70;;;;;;5053736;28;816;-70
2022/06/04 10:31:52;;;;;;;;;;;20.20;70.50;;;;;;5053248;28;894;-70
2022/06/04 10:34:38;;;;;;;;;;;20.20;70.30;;;;;;5053439;28;1244;-69
2022/06/04 10:37:13;;;;;;;;;;;20.20;70.20;;;;;;5052179;28;922;-70
2022/06/04 10:39:38;;;;;;;;;;;20.20;69.90;;;;;;5036342;28;1541;-69
2022/06/04 10:42:07;;;;;;;;;;;20.20;69.20;;;;;;5033147;28;1906;-70
2022/06/04 10:44:45;;;;;;;;;;;20.20;69.10;;;;;;5033472;28;1269;-70
2022/06/04 10:47:15;;;;;;;;;;;20.20;69.30;;;;;;5033414;28;867;-70
2022/06/04 10:49:40;;;;;;;;;;;20.10;69.40;;;;;;5015086;28;1236;-71
2022/06/04 10:52:11;;;;;;;;;;;20.20;69.60;;;;;;5033170;28;1053;-70
2022/06/04 10:54:43;;;;;;;;;;;20.10;69.60;;;;;;5033074;28;1329;-70
2022/06/04 10:57:23;;;;;;;;;;;20.10;69.70;;;;;;5032091;28;915;-70
2022/06/04 11:00:00;;;;;;;;;;;20.10;69.70;;;;;;5031675;28;1088;-69
2022/06/04 11:02:37;;;;;;;;;;;20.10;69.70;;;;;;5031770;28;1910;-69
2022/06/04 11:05:04;;;;;;;;;;;20.10;69.80;;;;;;5031631;28;843;-70
2022/06/04 11:07:36;;;;;;;;;;;20.10;69.80;;;;;;5031798;28;899;-70
2022/06/04 11:10:06;;;;;;;;;;;20.10;69.70;;;;;;5032433;28;804;-70
2022/06/04 11:12:43;;;;;;;;;;;20.10;69.90;;;;;;5030750;28;1429;-69
2022/06/04 11:15:10;;;;;;;;;;;20.10;69.90;;;;;;5032557;28;1007;-70
2022/06/04 11:17:44;;;;;;;;;;;20.10;69.90;;;;;;5031751;28;831;-70
2022/06/04 11:20:10;;;;;;;;;;;20.10;70.00;;;;;;5051316;28;1573;-70
2022/06/04 11:22:36;;;;;;;;;;;20.10;70.00;;;;;;5052744;28;1963;-70
2022/06/04 11:25:14;;;;;;;;;;;20.10;70.20;;;;;;5052695;28;842;-70
2022/06/04 11:27:41;;;;;;;;;;;20.10;70.20;;;;;;5050931;28;1524;-70
2022/06/04 11:30:12;;;;;;;;;;;20.10;70.20;;;;;;5051236;28;939;-70
2022/06/04 11:32:53;;;;;;;;;;;20.10;70.10;;;;;;5051428;28;1333;-70
2022/06/04 11:35:22;;;;;;;;;;;20.10;70.30;;;;;;5046698;28;1962;-71
2022/06/04 11:37:48;;;;;;;;;;;20.10;71.10;;;;;;5043090;28;1683;-70
2022/06/04 11:40:16;;;;;;;;;;;20.10;70.40;;;;;;5052275;28;839;-70
2022/06/04 11:42:42;;;;;;;;;;;20.10;70.50;;;;;;5050838;28;1902;-70
2022/06/04 11:45:30;;;;;;;;;;;20.10;70.70;;;;;;5044157;28;1419;-70
2022/06/04 11:47:59;;;;;;;;;;;20.10;70.70;;;;;;5032702;28;1102;-71
2022/06/04 11:50:28;;;;;;;;;;;20.10;71.30;;;;;;5047615;28;2401;-70
2022/06/04 11:52:56;;;;;;;;;;;20.10;71.40;;;;;;5048415;28;1592;-70
2022/06/04 11:55:25;;;;;;;;;;;20.10;71.30;;;;;;5023018;28;1511;-71
2022/06/04 11:58:06;;;;;;;;;;;20.10;71.20;;;;;;5034590;28;878;-70
2022/06/04 12:00:32;;;;;;;;;;;20.20;71.10;;;;;;5052056;28;1906;-70
2022/06/04 12:02:58;;;;;;;;;;;20.20;70.90;;;;;;5049872;28;2293;-72
2022/06/04 12:05:33;;;;;;;;;;;20.20;71.00;;;;;;5046421;28;1138;-72
2022/06/04 12:08:04;;;;;;;;;;;20.20;70.10;;;;;;5043625;28;1162;-71
2022/06/04 12:10:38;;;;;;;;;;;20.20;69.30;;;;;;5050224;28;1055;-71
2022/06/04 12:13:04;;;;;;;;;;;20.10;68.40;;;;;;5045369;28;1333;-71
2022/06/04 12:15:44;;;;;;;;;;;20.10;68.10;;;;;;5051989;28;1174;-71
2022/06/04 12:18:28;;;;;;;;;;;20.10;68.00;;;;;;5043149;28;1090;-71
2022/06/04 12:26:28;;;;;;;;;;;20.00;67.10;;;;;;5039433;28;1116;-71
2022/06/04 12:28:54;;;;;;;;;;;20.00;67.10;;;;;;5050539;28;918;-71
2022/06/04 12:31:27;;;;;;;;;;;20.00;67.00;;;;;;5050394;28;938;-70
2022/06/04 12:33:52;;;;;;;;;;;20.00;66.80;;;;;;5051613;28;1334;-70
2022/06/04 12:36:29;;;;;;;;;;;20.00;66.50;;;;;;5050601;28;1420;-70
2022/06/04 12:39:17;;;;;;;;;;;20.00;66.40;;;;;;5049827;28;864;-70
2022/06/04 12:41:44;;;;;;;;;;;19.90;66.20;;;;;;5034657;28;1906;-69
2022/06/04 12:44:20;;;;;;;;;;;19.90;66.10;;;;;;5034060;28;1253;-69
2022/06/04 12:46:48;;;;;;;;;;;19.90;66.10;;;;;;5033433;28;850;-68
2022/06/04 12:49:21;;;;;;;;;;;19.90;65.90;;;;;;5038094;28;2236;-69
2022/06/04 12:52:04;;;;;;;;;;;19.90;65.90;;;;;;5053473;28;1483;-69
2022/06/04 12:54:36;;;;;;;;;;;19.90;65.40;;;;;;5045601;28;1748;-66
2022/06/04 12:57:11;;;;;;;;;;;19.90;65.70;;;;;;5050632;28;1220;-68
2022/06/04 12:59:36;;;;;;;;;;;19.90;65.30;;;;;;5055054;28;1255;-68
2022/06/04 13:02:02;;;;;;;;;;;19.90;65.10;;;;;;5054667;28;1891;-70
2022/06/04 13:04:35;;;;;;;;;;;19.90;64.70;;;;;;5052890;28;1284;-69
2022/06/04 13:07:21;;;;;;;;;;;19.90;65.00;;;;;;5053556;28;835;-69
2022/06/04 13:09:55;;;;;;;;;;;19.90;65.10;;;;;;5053920;28;1124;-72
2022/06/04 13:12:47;;;;;;;;;;;19.90;65.20;;;;;;5053549;28;1228;-68
2022/06/04 13:15:23;;;;;;;;;;;19.90;65.20;;;;;;5050483;28;1222;-67
2022/06/04 13:17:49;;;;;;;;;;;19.80;64.90;;;;;;5054237;28;1214;-67
2022/06/04 13:20:15;;;;;;;;;;;19.80;64.90;;;;;;5034483;28;854;-68
2022/06/04 13:22:49;;;;;;;;;;;19.80;65.00;;;;;;5034876;28;1894;-71
2022/06/04 13:25:14;;;;;;;;;;;19.80;65.00;;;;;;5033609;28;1190;-70
2022/06/04 13:27:42;;;;;;;;;;;19.80;65.10;;;;;;5035397;28;1166;-71
2022/06/04 13:30:14;;;;;;;;;;;19.80;65.10;;;;;;5031886;28;1007;-71
2022/06/04 13:32:40;;;;;;;;;;;19.80;65.00;;;;;;5033488;28;1253;-70
2022/06/04 13:35:06;;;;;;;;;;;19.80;65.00;;;;;;5034502;28;894;-70
2022/06/04 13:37:33;;;;;;;;;;;19.80;64.80;;;;;;5034557;28;804;-71
2022/06/04 13:40:01;;;;;;;;;;;19.80;64.90;;;;;;5032651;28;804;-71
2022/06/04 13:42:29;;;;;;;;;;;19.80;64.70;;;;;;5032692;28;1898;-70
2022/06/04 13:44:56;;;;;;;;;;;19.80;64.60;;;;;;5034647;28;819;-71
2022/06/04 13:47:25;;;;;;;;;;;19.80;64.70;;;;;;5033153;28;831;-71
2022/06/04 13:50:02;;;;;;;;;;;19.80;64.70;;;;;;5034182;28;878;-71
2022/06/04 13:52:28;;;;;;;;;;;19.80;64.70;;;;;;5032663;28;1327;-71
2022/06/04 13:54:54;;;;;;;;;;;19.80;64.50;;;;;;5034059;28;808;-71
2022/06/04 13:57:32;;;;;;;;;;;19.80;64.50;;;;;;5033077;28;859;-70
2022/06/04 13:59:58;;;;;;;;;;;19.80;64.40;;;;;;5048185;28;2171;-70
2022/06/04 14:02:24;;;;;;;;;;;19.80;64.40;;;;;;5045452;28;1911;-72
2022/06/04 14:07:39;;;;;;;;;;;19.80;63.60;;;;;;5049863;28;1619;-71
2022/06/04 14:10:08;;;;;;;;;;;19.80;63.50;;;;;;5053559;28;1041;-71
2022/06/04 14:12:49;;;;;;;;;;;19.80;63.60;;;;;;5052631;28;1303;-71
2022/06/04 14:15:33;;;;;;;;;;;19.80;63.80;;;;;;5053875;28;910;-71
2022/06/04 14:18:06;;;;;;;;;;;19.80;63.70;;;;;;5051639;28;1099;-71
2022/06/04 14:20:34;;;;;;;;;;;19.80;63.20;;;;;;5032315;28;1902;-71
2022/06/04 14:23:15;;;;;;;;;;;19.80;63.60;;;;;;5032437;28;1279;-70
2022/06/04 14:25:59;;;;;;;;;;;19.80;63.70;;;;;;5036285;28;1111;-71
2022/06/04 14:28:37;;;;;;;;;;;19.80;63.80;;;;;;5053626;28;739;-71
2022/06/04 14:31:09;;;;;;;;;;;19.80;62.40;;;;;;5053139;28;851;-70
2022/06/04 14:33:35;;;;;;;;;;;19.80;62.40;;;;;;5053397;28;1290;-71
2022/06/04 14:36:02;;;;;;;;;;;19.80;62.50;;;;;;5053417;28;858;-71
2022/06/04 14:38:28;;;;;;;;;;;19.80;62.80;;;;;;5052340;28;886;-71
2022/06/04 14:41:00;;;;;;;;;;;19.80;62.90;;;;;;5053252;28;1959;-71
2022/06/04 14:43:33;;;;;;;;;;;19.80;62.90;;;;;;5052301;28;1168;-71
2022/06/04 14:45:58;;;;;;;;;;;19.80;63.20;;;;;;5053711;28;855;-71
2022/06/04 14:48:34;;;;;;;;;;;19.80;63.30;;;;;;5053598;28;910;-71
2022/06/04 14:51:09;;;;;;;;;;;19.80;63.40;;;;;;5052196;28;1026;-71
2022/06/04 14:53:34;;;;;;;;;;;19.80;63.30;;;;;;5052243;28;1268;-71
2022/06/04 14:56:03;;;;;;;;;;;19.80;63.20;;;;;;5052289;28;906;-71
2022/06/04 14:58:49;;;;;;;;;;;19.80;63.20;;;;;;5053456;28;823;-71
2022/06/04 15:01:17;;;;;;;;;;;19.80;63.00;;;;;;5051755;28;2304;-71
2022/06/04 15:03:46;;;;;;;;;;;19.80;63.10;;;;;;5052360;28;1200;-71